sensor_id;sensor_type;location;lat;lon;timestamp;P1;durP1;ratioP1;P2;durP2;ratioP2
5742;SDS011;2896;53.500;10.020;2022-07-01T00:01:41;13.93;;;3.93;;
5742;SDS011;2896;53.500;10.020;2022-07-01T00:04:08;7.60;;;3.10;;
5742;SDS011;2896;53.500;10.020;2022-07-01T00:06:35;3.40;;;3.20;;
5742;SDS011;2896;53.500;10.020;2022-07-01T00:09:02;3.60;;;3.30;;
5742;SDS011;2896;53.500;10.020;2022-07-01T00:11:36;7.47;;;2.80;;
5742;SDS011;2896;53.500;10.020;2022-07-01T00:14:02;8.23;;;3.40;;
5742;SDS011;2896;53.500;10.020;2022-07-01T00:16:29;8.83;;;3.97;;
5742;SDS011;2896;53.500;10.020;2022-07-01T00:18:57;9.97;;;3.93;;
5742;SDS011;2896;53.500;10.020;2022-07-01T00:21:24;17.93;;;5.00;;
5742;SDS011;2896;53.500;10.020;2022-07-01T00:23:51;14.13;;;5.00;;
5742;SDS011;2896;53.500;10.020;2022-07-01T00:26:17;13.43;;;5.50;;
5742;SDS011;2896;53.500;10.020;2022-07-01T00:28:44;9.37;;;4.77;;
5742;SDS011;2896;53.500;10.020;2022-07-01T00:31:13;14.80;;;5.40;;
5742;SDS011;2896;53.500;10.020;2022-07-01T00:33:42;18.43;;;5.30;;
5742;SDS011;2896;53.500;10.020;2022-07-01T00:36:10;11.80;;;5.00;;
5742;SDS011;2896;53.500;10.020;2022-07-01T00:38:37;6.87;;;5.10;;
5742;SDS011;2896;53.500;10.020;2022-07-01T00:41:04;8.87;;;6.17;;
5742;SDS011;2896;53.500;10.020;2022-07-01T00:43:34;11.37;;;5.90;;
5742;SDS011;2896;53.500;10.020;2022-07-01T00:46:01;10.43;;;5.47;;
5742;SDS011;2896;53.500;10.020;2022-07-01T00:48:28;9.90;;;5.93;;
5742;SDS011;2896;53.500;10.020;2022-07-01T00:50:55;8.60;;;5.33;;
5742;SDS011;2896;53.500;10.020;2022-07-01T00:53:25;13.77;;;7.17;;
5742;SDS011;2896;53.500;10.020;2022-07-01T00:55:53;18.47;;;6.90;;
5742;SDS011;2896;53.500;10.020;2022-07-01T00:58:19;15.27;;;7.37;;
5742;SDS011;2896;53.500;10.020;2022-07-01T01:00:46;22.13;;;8.90;;
5742;SDS011;2896;53.500;10.020;2022-07-01T01:03:12;14.43;;;7.73;;
5742;SDS011;2896;53.500;10.020;2022-07-01T01:05:39;11.40;;;7.07;;
5742;SDS011;2896;53.500;10.020;2022-07-01T01:08:08;15.77;;;8.17;;
5742;SDS011;2896;53.500;10.020;2022-07-01T01:10:36;12.00;;;7.17;;
5742;SDS011;2896;53.500;10.020;2022-07-01T01:13:04;14.77;;;6.90;;
5742;SDS011;2896;53.500;10.020;2022-07-01T01:15:30;11.53;;;6.43;;
5742;SDS011;2896;53.500;10.020;2022-07-01T01:17:57;11.73;;;7.07;;
5742;SDS011;2896;53.500;10.020;2022-07-01T01:20:25;12.00;;;7.50;;
5742;SDS011;2896;53.500;10.020;2022-07-01T01:22:53;14.10;;;6.97;;
5742;SDS011;2896;53.500;10.020;2022-07-01T01:25:20;12.83;;;7.13;;
5742;SDS011;2896;53.500;10.020;2022-07-01T01:27:47;8.43;;;6.77;;
5742;SDS011;2896;53.500;10.020;2022-07-01T01:30:14;11.20;;;7.30;;
5742;SDS011;2896;53.500;10.020;2022-07-01T01:32:40;13.33;;;7.10;;
5742;SDS011;2896;53.500;10.020;2022-07-01T01:35:07;11.20;;;6.40;;
5742;SDS011;2896;53.500;10.020;2022-07-01T01:37:35;8.10;;;5.93;;
5742;SDS011;2896;53.500;10.020;2022-07-01T01:40:03;10.63;;;6.67;;
5742;SDS011;2896;53.500;10.020;2022-07-01T01:42:31;12.70;;;8.47;;
5742;SDS011;2896;53.500;10.020;2022-07-01T01:44:58;10.80;;;7.40;;
5742;SDS011;2896;53.500;10.020;2022-07-01T01:47:25;10.27;;;6.93;;
5742;SDS011;2896;53.500;10.020;2022-07-01T01:49:51;12.37;;;6.80;;
5742;SDS011;2896;53.500;10.020;2022-07-01T01:52:18;7.27;;;6.60;;
5742;SDS011;2896;53.500;10.020;2022-07-01T01:54:44;8.20;;;6.97;;
5742;SDS011;2896;53.500;10.020;2022-07-01T01:57:13;22.10;;;8.50;;
5742;SDS011;2896;53.500;10.020;2022-07-01T01:59:39;9.93;;;7.33;;
5742;SDS011;2896;53.500;10.020;2022-07-01T02:02:06;24.97;;;9.37;;
5742;SDS011;2896;53.500;10.020;2022-07-01T02:04:33;9.50;;;7.40;;
5742;SDS011;2896;53.500;10.020;2022-07-01T02:06:59;13.40;;;7.63;;
5742;SDS011;2896;53.500;10.020;2022-07-01T02:09:26;13.40;;;8.60;;
5742;SDS011;2896;53.500;10.020;2022-07-01T02:11:54;11.33;;;8.40;;
5742;SDS011;2896;53.500;10.020;2022-07-01T02:14:22;11.50;;;8.80;;
5742;SDS011;2896;53.500;10.020;2022-07-01T02:16:48;12.23;;;8.73;;
5742;SDS011;2896;53.500;10.020;2022-07-01T02:19:15;10.30;;;7.70;;
5742;SDS011;2896;53.500;10.020;2022-07-01T02:21:42;11.00;;;8.57;;
5742;SDS011;2896;53.500;10.020;2022-07-01T02:24:08;11.53;;;8.83;;
5742;SDS011;2896;53.500;10.020;2022-07-01T02:26:35;12.30;;;8.90;;
5742;SDS011;2896;53.500;10.020;2022-07-01T02:29:01;9.77;;;8.03;;
5742;SDS011;2896;53.500;10.020;2022-07-01T02:31:30;16.00;;;8.27;;
5742;SDS011;2896;53.500;10.020;2022-07-01T02:33:57;16.97;;;10.77;;
5742;SDS011;2896;53.500;10.020;2022-07-01T02:36:23;20.80;;;13.10;;
5742;SDS011;2896;53.500;10.020;2022-07-01T02:38:50;19.27;;;11.97;;
5742;SDS011;2896;53.500;10.020;2022-07-01T02:41:17;16.77;;;9.90;;
5742;SDS011;2896;53.500;10.020;2022-07-01T02:43:43;20.47;;;12.20;;
5742;SDS011;2896;53.500;10.020;2022-07-01T02:46:10;15.83;;;11.70;;
5742;SDS011;2896;53.500;10.020;2022-07-01T02:48:38;13.37;;;10.50;;
5742;SDS011;2896;53.500;10.020;2022-07-01T02:51:05;15.60;;;10.70;;
5742;SDS011;2896;53.500;10.020;2022-07-01T02:53:31;16.83;;;11.30;;
5742;SDS011;2896;53.500;10.020;2022-07-01T02:55:58;13.07;;;10.70;;
5742;SDS011;2896;53.500;10.020;2022-07-01T02:58:24;16.10;;;10.77;;
5742;SDS011;2896;53.500;10.020;2022-07-01T03:00:51;17.07;;;10.27;;
5742;SDS011;2896;53.500;10.020;2022-07-01T03:03:19;11.63;;;10.37;;
5742;SDS011;2896;53.500;10.020;2022-07-01T03:05:47;12.83;;;9.00;;
5742;SDS011;2896;53.500;10.020;2022-07-01T03:08:14;11.63;;;9.73;;
5742;SDS011;2896;53.500;10.020;2022-07-01T03:10:41;12.50;;;9.67;;
5742;SDS011;2896;53.500;10.020;2022-07-01T03:13:07;11.17;;;7.97;;
5742;SDS011;2896;53.500;10.020;2022-07-01T03:15:34;6.90;;;6.20;;
5742;SDS011;2896;53.500;10.020;2022-07-01T03:18:00;13.00;;;7.63;;
5742;SDS011;2896;53.500;10.020;2022-07-01T03:20:27;7.67;;;7.07;;
5742;SDS011;2896;53.500;10.020;2022-07-01T03:22:55;19.40;;;7.83;;
5742;SDS011;2896;53.500;10.020;2022-07-01T03:25:21;24.57;;;7.63;;
5742;SDS011;2896;53.500;10.020;2022-07-01T03:27:48;8.60;;;7.80;;
5742;SDS011;2896;53.500;10.020;2022-07-01T03:30:15;11.10;;;9.97;;
5742;SDS011;2896;53.500;10.020;2022-07-01T03:32:43;16.10;;;10.70;;
5742;SDS011;2896;53.500;10.020;2022-07-01T03:35:09;15.80;;;11.50;;
5742;SDS011;2896;53.500;10.020;2022-07-01T03:37:55;15.20;;;13.60;;
5742;SDS011;2896;53.500;10.020;2022-07-01T03:40:22;18.87;;;16.33;;
5742;SDS011;2896;53.500;10.020;2022-07-01T03:42:49;17.23;;;14.80;;
5742;SDS011;2896;53.500;10.020;2022-07-01T03:45:15;18.00;;;14.53;;
5742;SDS011;2896;53.500;10.020;2022-07-01T03:47:44;16.70;;;14.87;;
5742;SDS011;2896;53.500;10.020;2022-07-01T03:50:12;15.47;;;13.67;;
5742;SDS011;2896;53.500;10.020;2022-07-01T03:52:39;20.87;;;16.30;;
5742;SDS011;2896;53.500;10.020;2022-07-01T03:55:08;17.23;;;15.53;;
5742;SDS011;2896;53.500;10.020;2022-07-01T03:57:34;16.67;;;14.80;;
5742;SDS011;2896;53.500;10.020;2022-07-01T04:00:01;17.07;;;14.03;;
5742;SDS011;2896;53.500;10.020;2022-07-01T04:02:27;17.37;;;15.67;;
5742;SDS011;2896;53.500;10.020;2022-07-01T04:04:54;17.50;;;14.00;;
5742;SDS011;2896;53.500;10.020;2022-07-01T04:07:21;16.10;;;13.63;;
5742;SDS011;2896;53.500;10.020;2022-07-01T04:09:48;14.87;;;13.20;;
5742;SDS011;2896;53.500;10.020;2022-07-01T04:12:16;13.73;;;12.20;;
5742;SDS011;2896;53.500;10.020;2022-07-01T04:14:43;25.20;;;12.90;;
5742;SDS011;2896;53.500;10.020;2022-07-01T04:17:10;17.03;;;11.50;;
5742;SDS011;2896;53.500;10.020;2022-07-01T04:19:37;13.93;;;11.60;;
5742;SDS011;2896;53.500;10.020;2022-07-01T04:22:04;14.50;;;11.27;;
5742;SDS011;2896;53.500;10.020;2022-07-01T04:24:48;20.90;;;11.20;;
5742;SDS011;2896;53.500;10.020;2022-07-01T04:27:16;14.80;;;10.37;;
5742;SDS011;2896;53.500;10.020;2022-07-01T04:29:43;22.60;;;10.67;;
5742;SDS011;2896;53.500;10.020;2022-07-01T04:32:09;17.77;;;8.40;;
5742;SDS011;2896;53.500;10.020;2022-07-01T04:34:36;18.10;;;9.80;;
5742;SDS011;2896;53.500;10.020;2022-07-01T04:37:03;11.60;;;10.50;;
5742;SDS011;2896;53.500;10.020;2022-07-01T04:39:29;11.90;;;9.50;;
5742;SDS011;2896;53.500;10.020;2022-07-01T04:41:56;19.33;;;11.63;;
5742;SDS011;2896;53.500;10.020;2022-07-01T04:44:26;15.00;;;10.60;;
5742;SDS011;2896;53.500;10.020;2022-07-01T04:46:54;14.10;;;10.67;;
5742;SDS011;2896;53.500;10.020;2022-07-01T04:49:20;13.10;;;11.50;;
5742;SDS011;2896;53.500;10.020;2022-07-01T04:51:47;35.10;;;12.30;;
5742;SDS011;2896;53.500;10.020;2022-07-01T04:54:14;19.80;;;11.00;;
5742;SDS011;2896;53.500;10.020;2022-07-01T04:56:40;18.20;;;12.30;;
5742;SDS011;2896;53.500;10.020;2022-07-01T04:59:08;32.43;;;11.57;;
5742;SDS011;2896;53.500;10.020;2022-07-01T05:01:36;21.60;;;11.83;;
5742;SDS011;2896;53.500;10.020;2022-07-01T05:04:02;16.23;;;11.23;;
5742;SDS011;2896;53.500;10.020;2022-07-01T05:06:29;20.60;;;12.00;;
5742;SDS011;2896;53.500;10.020;2022-07-01T05:08:56;22.13;;;12.10;;
5742;SDS011;2896;53.500;10.020;2022-07-01T05:11:22;33.43;;;12.27;;
5742;SDS011;2896;53.500;10.020;2022-07-01T05:13:49;20.70;;;9.50;;
5742;SDS011;2896;53.500;10.020;2022-07-01T05:16:16;24.90;;;9.07;;
5742;SDS011;2896;53.500;10.020;2022-07-01T05:18:44;18.43;;;9.40;;
5742;SDS011;2896;53.500;10.020;2022-07-01T05:21:28;15.90;;;7.53;;
5742;SDS011;2896;53.500;10.020;2022-07-01T05:24:13;12.07;;;6.17;;
5742;SDS011;2896;53.500;10.020;2022-07-01T05:26:40;17.47;;;6.77;;
5742;SDS011;2896;53.500;10.020;2022-07-01T05:29:06;12.43;;;5.97;;
5742;SDS011;2896;53.500;10.020;2022-07-01T05:31:33;14.83;;;5.53;;
5742;SDS011;2896;53.500;10.020;2022-07-01T05:34:02;17.13;;;5.43;;
5742;SDS011;2896;53.500;10.020;2022-07-01T05:36:28;10.03;;;5.43;;
5742;SDS011;2896;53.500;10.020;2022-07-01T05:38:55;12.27;;;5.03;;
5742;SDS011;2896;53.500;10.020;2022-07-01T05:41:22;10.43;;;4.20;;
5742;SDS011;2896;53.500;10.020;2022-07-01T05:43:48;17.30;;;4.90;;
5742;SDS011;2896;53.500;10.020;2022-07-01T05:46:15;15.43;;;4.50;;
5742;SDS011;2896;53.500;10.020;2022-07-01T05:48:41;5.57;;;3.73;;
5742;SDS011;2896;53.500;10.020;2022-07-01T05:51:09;20.03;;;4.87;;
5742;SDS011;2896;53.500;10.020;2022-07-01T05:53:36;5.93;;;3.30;;
5742;SDS011;2896;53.500;10.020;2022-07-01T05:56:04;9.90;;;3.50;;
5742;SDS011;2896;53.500;10.020;2022-07-01T05:58:30;7.40;;;3.93;;
5742;SDS011;2896;53.500;10.020;2022-07-01T06:00:57;14.03;;;3.70;;
5742;SDS011;2896;53.500;10.020;2022-07-01T06:03:23;25.70;;;3.80;;
5742;SDS011;2896;53.500;10.020;2022-07-01T06:05:50;15.93;;;4.40;;
5742;SDS011;2896;53.500;10.020;2022-07-01T06:08:18;6.60;;;3.80;;
5742;SDS011;2896;53.500;10.020;2022-07-01T06:10:45;19.90;;;4.60;;
5742;SDS011;2896;53.500;10.020;2022-07-01T06:13:11;18.47;;;4.17;;
5742;SDS011;2896;53.500;10.020;2022-07-01T06:15:39;15.27;;;3.70;;
5742;SDS011;2896;53.500;10.020;2022-07-01T06:18:06;14.93;;;3.63;;
5742;SDS011;2896;53.500;10.020;2022-07-01T06:20:32;22.27;;;3.37;;
5742;SDS011;2896;53.500;10.020;2022-07-01T06:22:59;18.50;;;3.77;;
5742;SDS011;2896;53.500;10.020;2022-07-01T06:25:27;5.37;;;3.80;;
5742;SDS011;2896;53.500;10.020;2022-07-01T06:27:53;6.40;;;3.93;;
5742;SDS011;2896;53.500;10.020;2022-07-01T06:30:20;4.70;;;3.83;;
5742;SDS011;2896;53.500;10.020;2022-07-01T06:32:47;14.40;;;4.00;;
5742;SDS011;2896;53.500;10.020;2022-07-01T06:35:13;13.30;;;4.50;;
5742;SDS011;2896;53.500;10.020;2022-07-01T06:37:40;15.13;;;5.03;;
5742;SDS011;2896;53.500;10.020;2022-07-01T06:40:07;11.70;;;4.90;;
5742;SDS011;2896;53.500;10.020;2022-07-01T06:42:35;20.73;;;5.00;;
5742;SDS011;2896;53.500;10.020;2022-07-01T06:45:02;23.47;;;4.97;;
5742;SDS011;2896;53.500;10.020;2022-07-01T06:47:29;9.33;;;4.73;;
5742;SDS011;2896;53.500;10.020;2022-07-01T06:49:56;11.10;;;4.23;;
5742;SDS011;2896;53.500;10.020;2022-07-01T06:52:23;14.70;;;4.47;;
5742;SDS011;2896;53.500;10.020;2022-07-01T06:54:50;10.50;;;4.13;;
5742;SDS011;2896;53.500;10.020;2022-07-01T06:57:16;6.13;;;3.80;;
5742;SDS011;2896;53.500;10.020;2022-07-01T06:59:44;5.70;;;4.20;;
5742;SDS011;2896;53.500;10.020;2022-07-01T07:02:11;10.63;;;4.07;;
5742;SDS011;2896;53.500;10.020;2022-07-01T07:04:38;9.13;;;3.90;;
5742;SDS011;2896;53.500;10.020;2022-07-01T07:07:04;15.60;;;3.80;;
5742;SDS011;2896;53.500;10.020;2022-07-01T07:09:31;9.40;;;3.67;;
5742;SDS011;2896;53.500;10.020;2022-07-01T07:11:57;9.43;;;4.03;;
5742;SDS011;2896;53.500;10.020;2022-07-01T07:14:24;5.30;;;3.57;;
5742;SDS011;2896;53.500;10.020;2022-07-01T07:16:52;9.00;;;3.27;;
5742;SDS011;2896;53.500;10.020;2022-07-01T07:19:20;19.83;;;3.73;;
5742;SDS011;2896;53.500;10.020;2022-07-01T07:21:46;16.87;;;3.77;;
5742;SDS011;2896;53.500;10.020;2022-07-01T07:24:13;6.77;;;3.00;;
5742;SDS011;2896;53.500;10.020;2022-07-01T07:26:40;4.80;;;3.20;;
5742;SDS011;2896;53.500;10.020;2022-07-01T07:29:06;5.53;;;3.00;;
5742;SDS011;2896;53.500;10.020;2022-07-01T07:31:33;8.10;;;3.30;;
5742;SDS011;2896;53.500;10.020;2022-07-01T07:34:01;10.20;;;2.73;;
5742;SDS011;2896;53.500;10.020;2022-07-01T07:36:28;9.97;;;2.73;;
5742;SDS011;2896;53.500;10.020;2022-07-01T07:38:54;3.50;;;2.60;;
5742;SDS011;2896;53.500;10.020;2022-07-01T07:41:21;5.70;;;2.80;;
5742;SDS011;2896;53.500;10.020;2022-07-01T07:43:47;11.73;;;2.57;;
5742;SDS011;2896;53.500;10.020;2022-07-01T07:46:14;2.13;;;2.00;;
5742;SDS011;2896;53.500;10.020;2022-07-01T07:48:41;2.77;;;2.57;;
5742;SDS011;2896;53.500;10.020;2022-07-01T07:51:09;9.70;;;3.10;;
5742;SDS011;2896;53.500;10.020;2022-07-01T07:53:39;2.90;;;2.70;;
5742;SDS011;2896;53.500;10.020;2022-07-01T07:56:06;4.17;;;2.50;;
5742;SDS011;2896;53.500;10.020;2022-07-01T07:58:32;4.00;;;2.53;;
5742;SDS011;2896;53.500;10.020;2022-07-01T08:00:59;10.10;;;2.97;;
5742;SDS011;2896;53.500;10.020;2022-07-01T08:03:25;10.43;;;3.37;;
5742;SDS011;2896;53.500;10.020;2022-07-01T08:05:52;13.93;;;3.03;;
5742;SDS011;2896;53.500;10.020;2022-07-01T08:08:20;7.83;;;2.70;;
5742;SDS011;2896;53.500;10.020;2022-07-01T08:10:46;4.33;;;3.00;;
5742;SDS011;2896;53.500;10.020;2022-07-01T08:13:13;3.53;;;3.10;;
5742;SDS011;2896;53.500;10.020;2022-07-01T08:15:40;3.43;;;2.70;;
5742;SDS011;2896;53.500;10.020;2022-07-01T08:18:08;9.93;;;3.27;;
5742;SDS011;2896;53.500;10.020;2022-07-01T08:20:34;2.90;;;2.70;;
5742;SDS011;2896;53.500;10.020;2022-07-01T08:23:01;3.07;;;2.87;;
5742;SDS011;2896;53.500;10.020;2022-07-01T08:25:29;3.37;;;3.13;;
5742;SDS011;2896;53.500;10.020;2022-07-01T08:27:56;5.33;;;3.00;;
5742;SDS011;2896;53.500;10.020;2022-07-01T08:30:22;14.77;;;3.27;;
5742;SDS011;2896;53.500;10.020;2022-07-01T08:32:49;3.20;;;3.10;;
5742;SDS011;2896;53.500;10.020;2022-07-01T08:35:16;3.07;;;2.87;;
5742;SDS011;2896;53.500;10.020;2022-07-01T08:37:42;7.10;;;3.70;;
5742;SDS011;2896;53.500;10.020;2022-07-01T08:40:09;3.80;;;3.50;;
5742;SDS011;2896;53.500;10.020;2022-07-01T08:42:37;4.70;;;3.97;;
5742;SDS011;2896;53.500;10.020;2022-07-01T08:45:05;6.97;;;3.50;;
5742;SDS011;2896;53.500;10.020;2022-07-01T08:47:32;5.07;;;3.20;;
5742;SDS011;2896;53.500;10.020;2022-07-01T08:49:59;6.23;;;3.07;;
5742;SDS011;2896;53.500;10.020;2022-07-01T08:52:26;3.63;;;3.33;;
5742;SDS011;2896;53.500;10.020;2022-07-01T08:54:54;7.67;;;3.07;;
5742;SDS011;2896;53.500;10.020;2022-07-01T08:57:20;6.73;;;2.97;;
5742;SDS011;2896;53.500;10.020;2022-07-01T09:00:01;4.53;;;3.10;;
5742;SDS011;2896;53.500;10.020;2022-07-01T09:02:32;3.00;;;2.90;;
5742;SDS011;2896;53.500;10.020;2022-07-01T09:05:16;5.70;;;3.37;;
5742;SDS011;2896;53.500;10.020;2022-07-01T09:07:43;3.80;;;3.50;;
5742;SDS011;2896;53.500;10.020;2022-07-01T09:10:13;4.20;;;3.57;;
5742;SDS011;2896;53.500;10.020;2022-07-01T09:12:42;3.20;;;2.90;;
5742;SDS011;2896;53.500;10.020;2022-07-01T09:15:21;4.20;;;2.73;;
5742;SDS011;2896;53.500;10.020;2022-07-01T09:17:50;3.47;;;2.80;;
5742;SDS011;2896;53.500;10.020;2022-07-01T09:20:22;5.27;;;3.20;;
5742;SDS011;2896;53.500;10.020;2022-07-01T09:23:00;3.17;;;3.03;;
5742;SDS011;2896;53.500;10.020;2022-07-01T09:25:28;3.50;;;3.17;;
5742;SDS011;2896;53.500;10.020;2022-07-01T09:28:02;7.23;;;3.60;;
5742;SDS011;2896;53.500;10.020;2022-07-01T09:30:35;3.83;;;3.40;;
5742;SDS011;2896;53.500;10.020;2022-07-01T09:33:06;9.40;;;3.00;;
5742;SDS011;2896;53.500;10.020;2022-07-01T09:35:34;3.00;;;2.80;;
5742;SDS011;2896;53.500;10.020;2022-07-01T09:38:01;10.20;;;3.50;;
5742;SDS011;2896;53.500;10.020;2022-07-01T09:43:13;3.10;;;3.00;;
5742;SDS011;2896;53.500;10.020;2022-07-01T09:45:49;3.40;;;3.10;;
5742;SDS011;2896;53.500;10.020;2022-07-01T09:48:20;4.47;;;3.70;;
5742;SDS011;2896;53.500;10.020;2022-07-01T09:50:47;9.03;;;3.27;;
5742;SDS011;2896;53.500;10.020;2022-07-01T09:53:14;5.40;;;3.43;;
5742;SDS011;2896;53.500;10.020;2022-07-01T09:55:40;4.57;;;3.80;;
5742;SDS011;2896;53.500;10.020;2022-07-01T09:58:07;3.77;;;3.40;;
5742;SDS011;2896;53.500;10.020;2022-07-01T10:00:35;8.50;;;3.97;;
5742;SDS011;2896;53.500;10.020;2022-07-01T10:03:04;6.63;;;3.23;;
5742;SDS011;2896;53.500;10.020;2022-07-01T10:05:33;6.73;;;3.70;;
5742;SDS011;2896;53.500;10.020;2022-07-01T10:08:07;5.60;;;3.60;;
5742;SDS011;2896;53.500;10.020;2022-07-01T10:10:48;3.87;;;3.53;;
5742;SDS011;2896;53.500;10.020;2022-07-01T10:13:17;6.07;;;3.60;;
5742;SDS011;2896;53.500;10.020;2022-07-01T10:15:50;11.40;;;3.40;;
5742;SDS011;2896;53.500;10.020;2022-07-01T10:18:20;4.00;;;3.70;;
5742;SDS011;2896;53.500;10.020;2022-07-01T10:20:47;3.80;;;3.50;;
5742;SDS011;2896;53.500;10.020;2022-07-01T10:23:15;6.60;;;3.53;;
5742;SDS011;2896;53.500;10.020;2022-07-01T10:25:42;4.43;;;4.00;;
5742;SDS011;2896;53.500;10.020;2022-07-01T10:28:16;4.43;;;4.03;;
5742;SDS011;2896;53.500;10.020;2022-07-01T10:30:49;6.90;;;4.00;;
5742;SDS011;2896;53.500;10.020;2022-07-01T10:33:37;5.00;;;3.33;;
5742;SDS011;2896;53.500;10.020;2022-07-01T10:36:07;11.67;;;4.20;;
5742;SDS011;2896;53.500;10.020;2022-07-01T10:41:35;7.30;;;3.90;;
5742;SDS011;2896;53.500;10.020;2022-07-01T10:44:03;5.10;;;3.73;;
5742;SDS011;2896;53.500;10.020;2022-07-01T10:46:38;6.40;;;3.73;;
5742;SDS011;2896;53.500;10.020;2022-07-01T10:49:11;4.03;;;3.73;;
5742;SDS011;2896;53.500;10.020;2022-07-01T10:51:45;4.70;;;3.00;;
5742;SDS011;2896;53.500;10.020;2022-07-01T10:54:12;4.67;;;4.10;;
5742;SDS011;2896;53.500;10.020;2022-07-01T10:56:40;7.10;;;4.90;;
5742;SDS011;2896;53.500;10.020;2022-07-01T10:59:06;6.40;;;4.20;;
5742;SDS011;2896;53.500;10.020;2022-07-01T11:01:33;5.33;;;4.10;;
5742;SDS011;2896;53.500;10.020;2022-07-01T11:04:02;7.77;;;4.20;;
5742;SDS011;2896;53.500;10.020;2022-07-01T11:06:30;7.23;;;5.90;;
5742;SDS011;2896;53.500;10.020;2022-07-01T11:09:03;5.40;;;4.20;;
5742;SDS011;2896;53.500;10.020;2022-07-01T11:11:30;8.07;;;6.00;;
5742;SDS011;2896;53.500;10.020;2022-07-01T11:13:57;9.23;;;5.70;;
5742;SDS011;2896;53.500;10.020;2022-07-01T11:16:23;6.90;;;5.00;;
5742;SDS011;2896;53.500;10.020;2022-07-01T11:18:50;10.00;;;5.40;;
5742;SDS011;2896;53.500;10.020;2022-07-01T11:21:17;12.50;;;5.57;;
5742;SDS011;2896;53.500;10.020;2022-07-01T11:23:53;6.17;;;5.70;;
5742;SDS011;2896;53.500;10.020;2022-07-01T11:26:21;6.87;;;5.80;;
5742;SDS011;2896;53.500;10.020;2022-07-01T11:28:48;7.27;;;6.53;;
5742;SDS011;2896;53.500;10.020;2022-07-01T11:31:14;6.10;;;5.30;;
5742;SDS011;2896;53.500;10.020;2022-07-01T11:33:41;7.57;;;5.90;;
5742;SDS011;2896;53.500;10.020;2022-07-01T11:36:15;6.40;;;5.43;;
5742;SDS011;2896;53.500;10.020;2022-07-01T11:39:00;6.50;;;5.70;;
5742;SDS011;2896;53.500;10.020;2022-07-01T11:41:44;6.90;;;6.07;;
5742;SDS011;2896;53.500;10.020;2022-07-01T11:44:11;6.63;;;6.00;;
5742;SDS011;2896;53.500;10.020;2022-07-01T11:46:38;10.03;;;7.23;;
5742;SDS011;2896;53.500;10.020;2022-07-01T11:49:10;7.40;;;6.73;;
5742;SDS011;2896;53.500;10.020;2022-07-01T11:51:37;6.70;;;6.10;;
5742;SDS011;2896;53.500;10.020;2022-07-01T11:54:05;7.63;;;5.57;;
5742;SDS011;2896;53.500;10.020;2022-07-01T11:56:33;6.27;;;5.67;;
5742;SDS011;2896;53.500;10.020;2022-07-01T11:59:03;17.33;;;5.50;;
5742;SDS011;2896;53.500;10.020;2022-07-01T12:01:30;8.87;;;5.40;;
5742;SDS011;2896;53.500;10.020;2022-07-01T12:03:59;7.77;;;6.20;;
5742;SDS011;2896;53.500;10.020;2022-07-01T12:06:29;8.13;;;5.10;;
5742;SDS011;2896;53.500;10.020;2022-07-01T12:08:56;5.67;;;4.90;;
5742;SDS011;2896;53.500;10.020;2022-07-01T12:11:25;6.03;;;5.53;;
5742;SDS011;2896;53.500;10.020;2022-07-01T12:13:54;6.73;;;5.10;;
5742;SDS011;2896;53.500;10.020;2022-07-01T12:16:22;8.80;;;5.90;;
5742;SDS011;2896;53.500;10.020;2022-07-01T12:18:52;6.03;;;5.33;;
5742;SDS011;2896;53.500;10.020;2022-07-01T12:21:21;8.20;;;6.27;;
5742;SDS011;2896;53.500;10.020;2022-07-01T12:24:04;6.30;;;5.13;;
5742;SDS011;2896;53.500;10.020;2022-07-01T12:26:34;8.03;;;5.90;;
5742;SDS011;2896;53.500;10.020;2022-07-01T12:29:01;10.40;;;6.20;;
5742;SDS011;2896;53.500;10.020;2022-07-01T12:31:28;7.40;;;5.60;;
5742;SDS011;2896;53.500;10.020;2022-07-01T12:33:54;17.70;;;5.70;;
5742;SDS011;2896;53.500;10.020;2022-07-01T12:36:21;6.17;;;5.63;;
5742;SDS011;2896;53.500;10.020;2022-07-01T12:38:59;6.00;;;4.40;;
5742;SDS011;2896;53.500;10.020;2022-07-01T12:41:27;13.90;;;5.53;;
5742;SDS011;2896;53.500;10.020;2022-07-01T12:43:56;7.57;;;5.70;;
5742;SDS011;2896;53.500;10.020;2022-07-01T12:46:28;5.77;;;4.60;;
5742;SDS011;2896;53.500;10.020;2022-07-01T12:48:56;7.47;;;5.77;;
5742;SDS011;2896;53.500;10.020;2022-07-01T12:51:28;6.97;;;5.43;;
5742;SDS011;2896;53.500;10.020;2022-07-01T12:53:56;7.80;;;5.23;;
5742;SDS011;2896;53.500;10.020;2022-07-01T12:56:23;6.20;;;5.60;;
5742;SDS011;2896;53.500;10.020;2022-07-01T12:58:51;10.77;;;6.13;;
5742;SDS011;2896;53.500;10.020;2022-07-01T13:01:19;10.83;;;6.60;;
5742;SDS011;2896;53.500;10.020;2022-07-01T13:03:46;5.43;;;4.93;;
5742;SDS011;2896;53.500;10.020;2022-07-01T13:06:13;9.23;;;5.30;;
5742;SDS011;2896;53.500;10.020;2022-07-01T13:08:40;8.00;;;4.73;;
5742;SDS011;2896;53.500;10.020;2022-07-01T13:11:07;8.47;;;5.90;;
5742;SDS011;2896;53.500;10.020;2022-07-01T13:13:33;4.30;;;4.00;;
5742;SDS011;2896;53.500;10.020;2022-07-01T13:16:00;11.73;;;6.23;;
5742;SDS011;2896;53.500;10.020;2022-07-01T13:18:28;5.40;;;5.00;;
5742;SDS011;2896;53.500;10.020;2022-07-01T13:20:54;7.93;;;4.67;;
5742;SDS011;2896;53.500;10.020;2022-07-01T13:23:21;8.20;;;4.90;;
5742;SDS011;2896;53.500;10.020;2022-07-01T13:25:48;4.23;;;3.90;;
5742;SDS011;2896;53.500;10.020;2022-07-01T13:28:14;6.67;;;4.90;;
5742;SDS011;2896;53.500;10.020;2022-07-01T13:30:41;5.93;;;4.60;;
5742;SDS011;2896;53.500;10.020;2022-07-01T13:33:08;4.50;;;4.10;;
5742;SDS011;2896;53.500;10.020;2022-07-01T13:35:35;6.83;;;4.10;;
5742;SDS011;2896;53.500;10.020;2022-07-01T13:38:02;8.70;;;4.80;;
5742;SDS011;2896;53.500;10.020;2022-07-01T13:40:29;5.73;;;5.23;;
5742;SDS011;2896;53.500;10.020;2022-07-01T13:42:55;9.60;;;4.67;;
5742;SDS011;2896;53.500;10.020;2022-07-01T13:45:22;4.50;;;4.10;;
5742;SDS011;2896;53.500;10.020;2022-07-01T13:47:49;5.57;;;5.00;;
5742;SDS011;2896;53.500;10.020;2022-07-01T13:50:15;5.03;;;4.50;;
5742;SDS011;2896;53.500;10.020;2022-07-01T13:52:46;5.07;;;4.60;;
5742;SDS011;2896;53.500;10.020;2022-07-01T13:55:14;9.43;;;4.80;;
5742;SDS011;2896;53.500;10.020;2022-07-01T13:57:41;4.60;;;4.30;;
5742;SDS011;2896;53.500;10.020;2022-07-01T14:00:08;15.90;;;5.10;;
5742;SDS011;2896;53.500;10.020;2022-07-01T14:02:35;9.70;;;4.37;;
5742;SDS011;2896;53.500;10.020;2022-07-01T14:05:02;8.97;;;5.20;;
5742;SDS011;2896;53.500;10.020;2022-07-01T14:07:29;6.37;;;5.37;;
5742;SDS011;2896;53.500;10.020;2022-07-01T14:09:58;8.33;;;4.20;;
5742;SDS011;2896;53.500;10.020;2022-07-01T14:12:24;18.93;;;5.30;;
5742;SDS011;2896;53.500;10.020;2022-07-01T14:14:51;5.20;;;4.40;;
5742;SDS011;2896;53.500;10.020;2022-07-01T14:17:18;5.53;;;4.97;;
5742;SDS011;2896;53.500;10.020;2022-07-01T14:19:45;8.97;;;4.77;;
5742;SDS011;2896;53.500;10.020;2022-07-01T14:22:11;5.47;;;4.93;;
5742;SDS011;2896;53.500;10.020;2022-07-01T14:24:38;8.00;;;4.93;;
5742;SDS011;2896;53.500;10.020;2022-07-01T14:27:06;9.80;;;5.07;;
5742;SDS011;2896;53.500;10.020;2022-07-01T14:29:33;12.43;;;6.20;;
5742;SDS011;2896;53.500;10.020;2022-07-01T14:32:00;5.73;;;5.10;;
5742;SDS011;2896;53.500;10.020;2022-07-01T14:34:26;6.10;;;5.47;;
5742;SDS011;2896;53.500;10.020;2022-07-01T14:36:53;7.07;;;5.50;;
5742;SDS011;2896;53.500;10.020;2022-07-01T14:39:19;6.83;;;6.13;;
5742;SDS011;2896;53.500;10.020;2022-07-01T14:41:46;12.83;;;5.60;;
5742;SDS011;2896;53.500;10.020;2022-07-01T14:44:17;6.83;;;5.80;;
5742;SDS011;2896;53.500;10.020;2022-07-01T14:46:43;10.00;;;5.17;;
5742;SDS011;2896;53.500;10.020;2022-07-01T14:49:10;7.03;;;6.33;;
5742;SDS011;2896;53.500;10.020;2022-07-01T14:51:39;26.60;;;21.30;;
5742;SDS011;2896;53.500;10.020;2022-07-01T14:54:06;6.90;;;6.07;;
5742;SDS011;2896;53.500;10.020;2022-07-01T14:56:32;5.80;;;5.20;;
5742;SDS011;2896;53.500;10.020;2022-07-01T14:58:59;12.07;;;6.57;;
5742;SDS011;2896;53.500;10.020;2022-07-01T15:01:27;11.60;;;7.30;;
5742;SDS011;2896;53.500;10.020;2022-07-01T15:03:53;9.87;;;8.90;;